Time;durP1;ratioP1;P1;durP2;ratioP2;P2;SDS_P1;SDS_P2;PMS_P1;PMS_P2;Temp;Humidity;BMP_temperature;BMP_pressure;BME280_temperature;BME280_humidity;BME280_pressure;Samples;Min_cycle;Max_cycle;Signal;HPM_P1;HPM_P2
2022/09/29 00:01:15;;;;;;;5.75;5.25;;;;;;;9.82;100.00;94381.56;6175512;23;20001;-62
2022/09/29 00:03:41;;;;;;;5.07;4.68;;;;;;;9.80;100.00;94373.03;6175883;23;20316;-62
2022/09/29 00:06:13;;;;;;;7.38;3.65;;;;;;;9.78;100.00;94363.69;6175437;23;20027;-62
2022/09/29 00:08:38;;;;;;;5.20;4.80;;;;;;;9.82;100.00;94350.03;6175309;23;20009;-63
2022/09/29 00:11:09;;;;;;;7.55;5.20;;;;;;;9.82;100.00;94343.94;6175217;23;20565;-62
2022/09/29 00:13:34;;;;;;;16.88;15.48;;;;;;;9.75;100.00;94338.56;6175653;23;20051;-63
2022/09/29 00:16:01;;;;;;;22.27;20.52;;;;;;;9.69;100.00;94340.06;6174808;23;20470;-59
2022/09/29 00:18:28;;;;;;;20.33;18.48;;;;;;;9.73;100.00;94340.56;6175079;23;20385;-59
2022/09/29 00:21:03;;;;;;;20.95;19.13;;;;;;;9.75;100.00;94342.00;6175257;23;20009;-59
2022/09/29 00:23:30;;;;;;;16.13;14.63;;;;;;;9.78;100.00;94332.13;6175548;23;20005;-59
2022/09/29 00:26:03;;;;;;;10.70;9.90;;;;;;;9.81;100.00;94331.78;6175188;23;20005;-59
2022/09/29 00:28:29;;;;;;;11.35;10.25;;;;;;;9.81;100.00;94334.41;6175692;23;19997;-59
2022/09/29 00:30:57;;;;;;;8.23;7.53;;;;;;;9.78;100.00;94330.34;6175076;23;20000;-68
2022/09/29 00:33:22;;;;;;;3.53;3.15;;;;;;;9.86;100.00;94308.47;6175208;23;20020;-63
2022/09/29 00:35:58;;;;;;;4.40;2.90;;;;;;;9.79;100.00;94313.59;6175338;23;20005;-63
2022/09/29 00:38:24;;;;;;;5.63;3.67;;;;;;;9.76;100.00;94300.78;6175376;23;20050;-64
2022/09/29 00:40:50;;;;;;;4.30;3.95;;;;;;;9.79;100.00;94304.88;6175738;23;20080;-63
2022/09/29 00:43:22;;;;;;;6.18;3.88;;;;;;;9.77;100.00;94309.47;6175247;23;20028;-63
2022/09/29 00:45:50;;;;;;;3.47;3.20;;;;;;;9.79;100.00;94302.22;6175517;23;20005;-64
2022/09/29 00:48:20;;;;;;;3.78;3.55;;;;;;;9.86;100.00;94304.00;6175454;23;20008;-64
2022/09/29 00:50:50;;;;;;;4.03;3.72;;;;;;;9.82;100.00;94300.09;6175669;22;20031;-63
2022/09/29 00:53:19;;;;;;;3.60;3.30;;;;;;;9.75;100.00;94294.69;6175322;23;20008;-68
2022/09/29 00:55:52;;;;;;;3.38;3.17;;;;;;;9.75;100.00;94307.84;6173771;23;20004;-68
2022/09/29 00:58:33;;;;;;;3.17;2.83;;;;;;;9.72;100.00;94310.81;6172828;23;20012;-67
2022/09/29 01:00:59;;;;;;;2.83;2.40;;;;;;;9.69;100.00;94305.06;6174623;23;20108;-68
2022/09/29 01:03:34;;;;;;;2.10;2.00;;;;;;;9.65;100.00;94295.88;6175134;23;20074;-68
2022/09/29 01:06:26;;;;;;;;;;;;;;;9.67;100.00;94307.03;6172994;23;20006;-68
2022/09/29 01:09:05;;;;;;;3.55;3.35;;;;;;;9.66;100.00;94298.34;6173934;23;19904;-69
2022/09/29 01:11:30;;;;;;;1.38;1.27;;;;;;;9.75;100.00;94315.72;6174876;23;20001;-62
2022/09/29 01:14:03;;;;;;;2.58;1.90;;;;;;;9.68;100.00;94306.06;6174511;23;20070;-68
2022/09/29 01:16:31;;;;;;;2.17;1.80;;;;;;;9.67;100.00;94305.25;6174384;23;20025;-68
2022/09/29 01:18:58;;;;;;;1.40;1.30;;;;;;;9.66;100.00;94306.25;6174378;23;20079;-67
2022/09/29 01:21:48;;;;;;;2.58;1.30;;;;;;;9.63;100.00;94298.72;6174913;23;20001;-68
2022/09/29 01:24:34;;;;;;;1.95;1.40;;;;;;;9.72;100.00;94295.03;6174964;23;19997;-68
2022/09/29 01:27:33;;;;;;;1.10;1.10;;;;;;;9.65;100.00;94291.47;6175137;23;20009;-68
2022/09/29 01:30:20;;;;;;;1.70;1.17;;;;;;;9.65;100.00;94288.84;6174838;23;20011;-62
2022/09/29 01:33:30;;;;;;;1.55;1.02;;;;;;;9.65;100.00;94291.47;6148657;23;20389;-68
2022/09/29 01:36:07;;;;;;;2.75;1.10;;;;;;;9.66;100.00;94277.34;6109363;23;20004;-68
2022/09/29 01:38:53;;;;;;;1.00;1.00;;;;;;;9.64;100.00;94286.38;6174706;23;20001;-68
2022/09/29 01:41:37;;;;;;;2.05;1.30;;;;;;;9.64;100.00;94281.13;6175035;23;20001;-67
2022/09/29 01:44:11;;;;;;;2.08;1.08;;;;;;;9.65;100.00;94286.22;6174633;23;20000;-68
2022/09/29 01:46:51;;;;;;;1.38;0.98;;;;;;;9.64;100.00;94278.50;6174644;23;20008;-67
2022/09/29 01:49:19;;;;;;;0.95;0.95;;;;;;;9.67;100.00;94278.97;6174498;23;20078;-63
2022/09/29 01:51:58;;;;;;;1.08;0.93;;;;;;;9.68;100.00;94277.16;6174538;23;20000;-67
2022/09/29 01:54:42;;;;;;;1.85;1.15;;;;;;;9.65;100.00;94270.44;6174793;23;20100;-67
2022/09/29 01:57:13;;;;;;;1.98;1.30;;;;;;;9.68;100.00;94277.16;6174863;23;19997;-67
2022/09/29 01:59:52;;;;;;;3.60;3.00;;;;;;;9.70;100.00;94273.38;6174671;23;20446;-66
2022/09/29 02:02:29;;;;;;;10.60;9.85;;;;;;;9.68;100.00;94270.09;6174515;23;20016;-67
2022/09/29 02:05:00;;;;;;;27.35;25.02;;;;;;;9.69;100.00;94276.16;6148408;22;20518;-67
2022/09/29 02:07:33;;;;;;;24.25;22.33;;;;;;;9.70;100.00;94280.41;6174637;23;20012;-64
2022/09/29 02:10:04;;;;;;;30.15;27.38;;;;;;;9.83;100.00;94282.50;6174655;23;20050;-67
2022/09/29 02:12:32;;;;;;;15.43;14.20;;;;;;;9.80;100.00;94282.84;6174401;23;20035;-61
2022/09/29 02:15:01;;;;;;;17.15;15.60;;;;;;;9.82;100.00;94292.22;6174570;23;20029;-61
2022/09/29 02:17:34;;;;;;;16.40;14.73;;;;;;;9.78;100.00;94295.34;6174936;23;20009;-61
2022/09/29 02:20:00;;;;;;;19.45;17.83;;;;;;;9.77;100.00;94289.28;6177710;23;20004;-61
2022/09/29 02:22:26;;;;;;;21.50;19.63;;;;;;;9.79;100.00;94281.22;6177546;23;20005;-61
2022/09/29 02:24:57;;;;;;;19.30;17.60;;;;;;;9.82;100.00;94275.59;6177736;23;19997;-61
2022/09/29 02:27:22;;;;;;;21.45;19.35;;;;;;;9.82;100.00;94272.97;6177980;23;20012;-73
2022/09/29 02:29:48;;;;;;;11.88;10.88;;;;;;;9.78;100.00;94282.19;6177376;23;20009;-62
2022/09/29 02:32:14;;;;;;;17.40;15.93;;;;;;;9.73;100.00;94275.66;6177619;23;20406;-59
2022/09/29 02:34:44;;;;;;;20.83;18.95;;;;;;;9.72;100.00;94281.06;6150630;23;20224;-59
2022/09/29 02:37:53;;;;;;;13.43;12.05;;;;;;;9.73;100.00;94277.47;6177160;23;20003;-60
2022/09/29 02:40:52;;;;;;;15.50;12.77;;;;;;;9.77;100.00;94275.31;6071638;23;20206;-58
2022/09/29 02:43:39;;;;;;;7.47;6.78;;;;;;;9.79;100.00;94262.81;6177778;23;20478;-58
2022/09/29 02:46:07;;;;;;;3.35;3.05;;;;;;;9.79;100.00;94255.75;6178065;23;20390;-73
2022/09/29 02:49:07;;;;;;;4.00;2.15;;;;;;;9.73;100.00;94254.63;6177219;23;20008;-61
2022/09/29 02:51:40;;;;;;;1.90;1.80;;;;;;;9.78;100.00;94263.81;6178486;23;20062;-63
2022/09/29 02:54:05;;;;;;;2.00;1.83;;;;;;;9.78;100.00;94258.53;6177169;23;19997;-63
2022/09/29 02:56:52;;;;;;;1.45;1.45;;;;;;;9.74;100.00;94251.00;6177623;23;20008;-63
2022/09/29 02:59:38;;;;;;;2.92;1.48;;;;;;;9.71;100.00;94254.00;6177116;23;20443;-63
2022/09/29 03:02:04;;;;;;;3.60;1.50;;;;;;;9.71;100.00;94251.34;6151074;23;20032;-63
2022/09/29 03:04:29;;;;;;;4.72;1.60;;;;;;;9.72;100.00;94249.53;6177963;23;20008;-63
2022/09/29 03:06:55;;;;;;;14.50;13.40;;;;;;;9.72;100.00;94237.22;6176861;23;20350;-57
2022/09/29 03:09:20;;;;;;;28.08;25.58;;;;;;;9.73;100.00;94233.59;6177176;23;20004;-61
2022/09/29 03:11:46;;;;;;;19.30;17.70;;;;;;;9.75;100.00;94230.81;6151140;23;20320;-61
2022/09/29 03:14:11;;;;;;;10.07;7.97;;;;;;;9.72;100.00;94226.72;6151167;23;20033;-62
2022/09/29 03:16:37;;;;;;;11.00;10.20;;;;;;;9.70;100.00;94228.69;6177646;23;19997;-62
2022/09/29 03:19:04;;;;;;;4.93;4.53;;;;;;;9.69;100.00;94228.84;6177081;23;20677;-61
2022/09/29 03:21:30;;;;;;;9.70;8.40;;;;;;;9.68;100.00;94222.78;6178088;23;20005;-61
2022/09/29 03:23:55;;;;;;;11.57;10.60;;;;;;;9.69;100.00;94219.19;6177230;23;20447;-61
2022/09/29 03:26:22;;;;;;;23.52;21.48;;;;;;;9.68;100.00;94221.97;6177496;23;20379;-64
2022/09/29 03:28:48;;;;;;;19.10;17.40;;;;;;;9.68;100.00;94217.53;6176793;23;20011;-63
2022/09/29 03:31:14;;;;;;;19.60;17.25;;;;;;;9.66;100.00;94222.16;6177164;23;20076;-62
2022/09/29 03:33:39;;;;;;;21.48;19.58;;;;;;;9.66;100.00;94219.53;6177142;23;20003;-62
2022/09/29 03:36:05;;;;;;;27.55;24.67;;;;;;;9.68;100.00;94228.06;6177427;23;20377;-63
2022/09/29 03:38:32;;;;;;;31.02;27.92;;;;;;;9.70;100.00;94233.94;6177440;23;20008;-62
2022/09/29 03:40:57;;;;;;;17.10;15.60;;;;;;;9.68;100.00;94243.00;6177387;23;20047;-62
2022/09/29 03:43:23;;;;;;;9.77;9.07;;;;;;;9.82;100.00;94257.19;6177188;23;20009;-63
2022/09/29 03:45:53;;;;;;;7.40;6.78;;;;;;;9.74;100.00;94264.16;6177509;23;20001;-66
2022/09/29 03:48:20;;;;;;;6.53;5.88;;;;;;;9.78;100.00;94271.69;6177092;23;20004;-73
2022/09/29 03:50:47;;;;;;;9.88;9.07;;;;;;;9.77;100.00;94289.28;6177401;23;20035;-73
2022/09/29 03:53:13;;;;;;;10.93;9.82;;;;;;;9.73;100.00;94294.06;6177137;23;20078;-73
2022/09/29 03:55:39;;;;;;;5.55;5.15;;;;;;;9.99;100.00;94287.69;6177478;23;20038;-74
2022/09/29 03:58:04;;;;;;;2.13;2.03;;;;;;;10.11;100.00;94292.56;6177641;23;20013;-73
2022/09/29 04:00:30;;;;;;;2.50;2.40;;;;;;;10.17;100.00;94295.31;6177554;23;20005;-73
2022/09/29 04:02:55;;;;;;;2.50;1.98;;;;;;;10.16;100.00;94292.84;6177123;23;20481;-73
2022/09/29 04:05:21;;;;;;;2.13;2.03;;;;;;;10.19;100.00;94292.50;6177272;23;20072;-60
2022/09/29 04:07:47;;;;;;;3.35;1.60;;;;;;;10.41;100.00;94296.19;6177481;23;20008;-63
2022/09/29 04:10:12;;;;;;;2.05;1.48;;;;;;;10.57;100.00;94297.03;6177583;23;20008;-63
2022/09/29 04:12:38;;;;;;;1.70;1.60;;;;;;;10.31;100.00;94296.38;6177732;23;20076;-63
2022/09/29 04:15:04;;;;;;;1.65;1.58;;;;;;;10.63;100.00;94303.41;6177756;23;20033;-62
2022/09/29 04:17:29;;;;;;;1.42;1.42;;;;;;;10.37;100.00;94320.34;6177082;23;20017;-62
2022/09/29 04:19:54;;;;;;;1.70;1.60;;;;;;;10.20;100.00;94319.63;6177882;23;20000;-62
2022/09/29 04:22:20;;;;;;;2.80;2.13;;;;;;;10.04;100.00;94324.78;6177383;23;20016;-63
2022/09/29 04:24:47;;;;;;;2.60;2.40;;;;;;;10.04;100.00;94334.50;6177497;23;20423;-67
2022/09/29 04:27:13;;;;;;;2.30;2.20;;;;;;;9.95;100.00;94328.47;6177060;23;20084;-73
2022/09/29 04:29:39;;;;;;;2.40;2.20;;;;;;;9.91;100.00;94334.22;6177466;23;20030;-73
2022/09/29 04:32:05;;;;;;;2.20;2.10;;;;;;;9.88;100.00;94338.84;6177728;23;20088;-73
2022/09/29 04:34:31;;;;;;;2.95;2.40;;;;;;;9.87;100.00;94342.44;6177687;23;20342;-73
2022/09/29 04:36:56;;;;;;;2.67;2.47;;;;;;;9.87;100.00;94336.38;6177306;23;20015;-73
2022/09/29 04:39:22;;;;;;;2.30;2.20;;;;;;;9.85;100.00;94331.28;6149801;23;20008;-73
2022/09/29 04:41:47;;;;;;;2.55;2.35;;;;;;;9.86;100.00;94330.31;6177481;23;20000;-68
2022/09/29 04:44:13;;;;;;;4.63;2.50;;;;;;;9.86;100.00;94340.00;6177333;23;20035;-66
2022/09/29 04:46:38;;;;;;;2.70;2.50;;;;;;;9.84;100.00;94336.72;6177189;23;20009;-67
2022/09/29 04:49:03;;;;;;;3.00;2.65;;;;;;;9.81;100.00;94337.88;6177253;23;20347;-67
2022/09/29 04:51:29;;;;;;;1.88;1.77;;;;;;;9.78;100.00;94340.03;6177104;23;20008;-67
2022/09/29 04:53:56;;;;;;;1.90;1.80;;;;;;;9.72;100.00;94337.09;6177530;23;20008;-67
2022/09/29 04:56:21;;;;;;;2.22;2.13;;;;;;;9.73;100.00;94338.72;6177220;23;19993;-67
2022/09/29 04:58:47;;;;;;;5.53;3.70;;;;;;;9.78;100.00;94343.47;6177179;23;20001;-67
2022/09/29 05:01:12;;;;;;;3.80;3.50;;;;;;;9.79;100.00;94346.91;6177142;23;19997;-68
2022/09/29 05:03:38;;;;;;;4.35;4.05;;;;;;;9.78;100.00;94351.38;6177596;23;20427;-73
2022/09/29 05:06:04;;;;;;;4.18;3.83;;;;;;;9.78;100.00;94355.78;6176900;23;20009;-54
2022/09/29 05:08:30;;;;;;;4.68;3.40;;;;;;;9.78;100.00;94354.00;6177642;22;20343;-56
2022/09/29 05:10:55;;;;;;;3.45;3.22;;;;;;;9.79;100.00;94352.16;6177033;23;20001;-57
2022/09/29 05:13:21;;;;;;;4.30;3.92;;;;;;;9.79;100.00;94358.25;6177287;23;20009;-56
2022/09/29 05:15:46;;;;;;;4.63;4.32;;;;;;;9.80;100.00;94359.06;6176819;23;20427;-57
2022/09/29 05:18:11;;;;;;;4.13;3.83;;;;;;;9.80;100.00;94361.69;6177298;23;20043;-57
2022/09/29 05:20:37;;;;;;;4.85;3.05;;;;;;;9.78;100.00;94369.78;6176732;23;20001;-62
2022/09/29 05:23:07;;;;;;;4.35;2.40;;;;;;;9.75;100.00;94363.03;6177049;23;20009;-72
2022/09/29 05:25:34;;;;;;;1.52;1.50;;;;;;;9.75;100.00;94367.47;6176160;23;20033;-61
2022/09/29 05:27:59;;;;;;;1.80;1.70;;;;;;;9.75;100.00;94362.22;6177437;22;20084;-61
2022/09/29 05:30:24;;;;;;;1.50;1.50;;;;;;;9.75;100.00;94362.22;6176108;23;20414;-61
2022/09/29 05:32:50;;;;;;;1.33;1.33;;;;;;;9.75;100.00;94367.47;6176777;23;20001;-61
2022/09/29 05:35:15;;;;;;;2.67;1.60;;;;;;;9.74;100.00;94371.91;6176349;22;20034;-61
2022/09/29 05:37:41;;;;;;;3.10;2.78;;;;;;;9.74;100.00;94374.53;6176628;23;20062;-61
2022/09/29 05:40:07;;;;;;;3.08;2.10;;;;;;;9.72;100.00;94371.25;6174010;23;20408;-63
2022/09/29 05:42:32;;;;;;;2.92;2.20;;;;;;;9.70;100.00;94381.13;6175342;22;20046;-54
2022/09/29 05:44:58;;;;;;;1.70;1.60;;;;;;;9.68;100.00;94380.47;6174252;23;20005;-67
2022/09/29 05:47:23;;;;;;;4.40;1.20;;;;;;;9.66;100.00;94386.88;6173077;23;20012;-68
2022/09/29 05:49:48;;;;;;;1.40;1.30;;;;;;;9.64;100.00;94381.81;6175736;23;20389;-68
2022/09/29 05:52:14;;;;;;;3.08;1.38;;;;;;;9.63;100.00;94389.84;6177877;23;20001;-67
2022/09/29 05:54:39;;;;;;;1.45;1.45;;;;;;;9.60;100.00;94383.94;6177625;23;20008;-67
2022/09/29 05:57:05;;;;;;;8.07;7.15;;;;;;;9.61;100.00;94382.13;6177544;23;20930;-68
2022/09/29 05:59:30;;;;;;;12.20;11.20;;;;;;;9.64;100.00;94386.22;6176802;23;20001;-74
2022/09/29 06:01:55;;;;;;;11.68;10.88;;;;;;;9.64;100.00;94388.84;6176423;23;20000;-67
2022/09/29 06:04:21;;;;;;;8.45;7.85;;;;;;;9.64;100.00;94387.06;6176940;23;20058;-57
2022/09/29 06:06:47;;;;;;;6.10;5.50;;;;;;;9.66;100.00;94385.06;6175744;23;20001;-56
2022/09/29 06:09:12;;;;;;;4.95;4.00;;;;;;;9.68;100.00;94383.09;6177345;22;20012;-55
2022/09/29 06:11:38;;;;;;;3.30;3.10;;;;;;;9.70;100.00;94393.44;6176810;23;20070;-56
2022/09/29 06:14:03;;;;;;;4.32;3.92;;;;;;;9.68;100.00;94382.25;6176293;23;20036;-56
2022/09/29 06:16:31;;;;;;;2.70;2.60;;;;;;;9.67;100.00;94386.72;6177458;23;20000;-57
2022/09/29 06:18:58;;;;;;;4.85;2.90;;;;;;;9.67;100.00;94384.09;6177405;23;20363;-70
2022/09/29 06:21:26;;;;;;;3.10;2.88;;;;;;;9.69;100.00;94384.75;6177740;23;20013;-62
2022/09/29 06:23:53;;;;;;;3.63;3.33;;;;;;;9.69;100.00;94387.38;6177943;23;19997;-66
2022/09/29 06:26:20;;;;;;;5.28;4.75;;;;;;;9.70;100.00;94382.91;6177837;23;20005;-67
2022/09/29 06:28:46;;;;;;;5.78;5.38;;;;;;;9.74;100.00;94379.78;6178251;23;20067;-67
2022/09/29 06:31:17;;;;;;;9.73;6.80;;;;;;;9.80;100.00;94375.66;6177960;23;20012;-67
2022/09/29 06:33:43;;;;;;;5.57;5.18;;;;;;;9.83;100.00;94371.88;6177647;23;20001;-67
2022/09/29 06:39:03;;;;;;;6.22;5.82;;;;;;;9.82;100.00;94373.69;6177700;23;20039;-61
2022/09/29 06:41:28;;;;;;;7.35;5.28;;;;;;;9.84;100.00;94370.91;6177896;23;20343;-57
2022/09/29 06:43:55;;;;;;;6.63;6.22;;;;;;;9.86;100.00;94368.94;6177973;22;20001;-56
2022/09/29 06:46:21;;;;;;;11.45;10.35;;;;;;;9.94;100.00;94370.69;6177410;23;20012;-56
2022/09/29 06:48:47;;;;;;;12.75;11.75;;;;;;;9.98;100.00;94367.53;6178150;23;20001;-55
2022/09/29 06:51:13;;;;;;;21.80;19.88;;;;;;;9.99;100.00;94365.75;6177344;23;20489;-57
2022/09/29 06:53:39;;;;;;;21.98;20.25;;;;;;;9.96;100.00;94366.91;6177815;23;20001;-56
2022/09/29 06:56:05;;;;;;;20.83;19.00;;;;;;;9.94;100.00;94366.25;6151282;23;20496;-57
2022/09/29 06:58:31;;;;;;;13.45;12.18;;;;;;;9.97;100.00;94365.91;6177886;23;20004;-68
2022/09/29 07:01:00;;;;;;;11.65;10.65;;;;;;;9.97;100.00;94373.00;6177903;23;19997;-68
2022/09/29 07:03:26;;;;;;;12.25;10.93;;;;;;;9.99;100.00;94376.28;6177373;23;20008;-68
2022/09/29 07:05:52;;;;;;;5.07;4.68;;;;;;;10.00;100.00;94383.16;6177735;22;20009;-67
2022/09/29 07:08:17;;;;;;;11.13;10.15;;;;;;;10.10;100.00;94380.34;6178200;23;20166;-66
2022/09/29 07:10:44;;;;;;;11.70;10.80;;;;;;;10.09;100.00;94379.50;6176574;23;20001;-64
2022/09/29 07:13:09;;;;;;;10.23;9.43;;;;;;;10.09;100.00;94378.69;6150671;23;20001;-66
2022/09/29 07:15:36;;;;;;;13.07;11.98;;;;;;;10.12;100.00;94378.34;6176807;23;19997;-66
2022/09/29 07:18:02;;;;;;;15.57;14.15;;;;;;;10.16;100.00;94372.56;6149934;22;20070;-67
2022/09/29 07:20:29;;;;;;;20.80;19.08;;;;;;;10.25;100.00;94372.53;6176573;23;20000;-59
2022/09/29 07:22:55;;;;;;;20.83;19.13;;;;;;;10.30;100.00;94367.56;6176606;23;19997;-59
2022/09/29 07:25:21;;;;;;;21.98;20.17;;;;;;;10.36;100.00;94377.38;6176964;23;20030;-60
2022/09/29 07:27:47;;;;;;;21.90;20.10;;;;;;;10.41;100.00;94369.84;6176581;23;20008;-61
2022/09/29 07:30:13;;;;;;;26.58;24.05;;;;;;;10.44;100.00;94366.03;6176348;23;20070;-61
2022/09/29 07:32:38;;;;;;;24.45;22.30;;;;;;;10.45;100.00;94373.78;6176875;23;20013;-59
2022/09/29 07:35:06;;;;;;;13.75;12.65;;;;;;;10.49;100.00;94365.53;6177294;23;20351;-61
2022/09/29 07:37:31;;;;;;;18.30;16.50;;;;;;;10.50;100.00;94364.53;6177734;23;20013;-61
2022/09/29 07:39:57;;;;;;;11.90;11.00;;;;;;;10.59;100.00;94360.84;6177435;23;20032;-62
2022/09/29 07:42:22;;;;;;;6.32;5.80;;;;;;;10.54;100.00;94358.75;6178385;23;20051;-61
2022/09/29 07:44:48;;;;;;;5.28;4.75;;;;;;;10.51;100.00;94361.72;6177490;23;20398;-61
2022/09/29 07:47:13;;;;;;;8.13;7.35;;;;;;;10.44;100.00;94364.25;6151238;23;20005;-61
2022/09/29 07:49:39;;;;;;;5.50;5.10;;;;;;;10.46;100.00;94371.94;6177381;23;20001;-61
2022/09/29 07:52:05;;;;;;;7.20;5.75;;;;;;;10.49;100.00;94360.25;6176788;23;20005;-61
2022/09/29 07:54:30;;;;;;;5.35;4.95;;;;;;;10.51;100.00;94361.72;6176730;23;19997;-61
2022/09/29 07:56:59;;;;;;;5.53;4.65;;;;;;;10.52;100.00;94357.28;6177585;23;20074;-68
2022/09/29 07:59:25;;;;;;;4.32;4.00;;;;;;;10.58;100.00;94354.78;6177950;23;20057;-61
2022/09/29 08:01:51;;;;;;;3.45;2.67;;;;;;;10.62;100.00;94359.69;6176276;22;20379;-61
2022/09/29 08:04:17;;;;;;;2.85;2.65;;;;;;;10.65;100.00;94354.06;6176478;23;20082;-60
2022/09/29 08:06:42;;;;;;;2.03;1.92;;;;;;;10.69;100.00;94363.25;6177040;23;20130;-61
2022/09/29 08:09:07;;;;;;;2.83;2.63;;;;;;;10.73;100.00;94370.63;6175891;23;20066;-61
2022/09/29 08:11:37;;;;;;;2.38;2.17;;;;;;;10.75;100.00;94367.81;6177187;23;20001;-61
2022/09/29 08:14:02;;;;;;;2.28;2.17;;;;;;;10.73;100.00;94367.19;6176833;23;19997;-61
2022/09/29 08:16:28;;;;;;;4.72;2.05;;;;;;;10.70;100.00;94367.50;6177176;23;20001;-66
2022/09/29 08:18:54;;;;;;;1.80;1.70;;;;;;;10.66;100.00;94369.69;6175595;23;20088;-68
2022/09/29 08:21:19;;;;;;;3.58;2.10;;;;;;;10.66;100.00;94374.97;6176825;23;20032;-68
2022/09/29 08:23:44;;;;;;;2.15;2.00;;;;;;;10.77;100.00;94372.91;6177192;23;20001;-68
2022/09/29 08:26:16;;;;;;;2.03;1.92;;;;;;;10.83;100.00;94374.81;6177031;23;20439;-68
2022/09/29 08:28:42;;;;;;;2.60;2.50;;;;;;;10.97;100.00;94373.25;6177775;22;20001;-68
2022/09/29 08:31:13;;;;;;;2.70;2.45;;;;;;;11.08;100.00;94370.19;6177347;23;20012;-68
2022/09/29 08:33:38;;;;;;;2.97;2.17;;;;;;;11.16;100.00;94378.03;6175982;23;20443;-68
2022/09/29 08:36:13;;;;;;;2.05;1.88;;;;;;;11.25;100.00;94375.31;6175873;23;20019;-61
2022/09/29 08:38:42;;;;;;;2.17;2.00;;;;;;;11.37;100.00;94378.34;6176206;23;20054;-56
2022/09/29 08:41:35;;;;;;;3.05;1.70;;;;;;;11.44;100.00;94374.81;6177287;23;20415;-56
2022/09/29 08:44:11;;;;;;;3.65;1.63;;;;;;;11.43;100.00;94375.00;6174886;23;20019;-56
2022/09/29 08:46:41;;;;;;;5.55;2.47;;;;;;;11.43;100.00;94375.81;6175477;23;20004;-57
2022/09/29 08:49:18;;;;;;;3.42;3.22;;;;;;;11.44;100.00;94380.09;6175590;23;20001;-58
2022/09/29 08:51:54;;;;;;;6.85;6.28;;;;;;;11.50;100.00;94380.38;6176122;23;20000;-56
2022/09/29 08:54:28;;;;;;;6.15;5.75;;;;;;;11.61;100.00;94380.75;6177177;23;20505;-68
2022/09/29 08:56:53;;;;;;;6.15;5.65;;;;;;;11.58;100.00;94372.38;6177335;23;20024;-64
2022/09/29 08:59:19;;;;;;;4.55;4.22;;;;;;;11.48;100.00;94374.47;6176969;23;20514;-64
2022/09/29 09:02:01;;;;;;;4.47;4.07;;;;;;;11.45;100.00;94375.63;6177384;23;19997;-64
2022/09/29 09:05:02;;;;;;;3.78;3.47;;;;;;;11.48;100.00;94379.72;6177349;23;20080;-64
2022/09/29 09:07:53;;;;;;;3.42;3.13;;;;;;;11.32;100.00;94371.81;6176540;23;20048;-64
2022/09/29 09:10:46;;;;;;;4.22;3.92;;;;;;;11.41;100.00;94375.19;6176800;23;20012;-64
2022/09/29 09:13:45;;;;;;;4.38;3.60;;;;;;;11.41;100.00;94384.91;6175729;23;20001;-61
2022/09/29 09:16:17;;;;;;;4.50;3.30;;;;;;;11.38;100.00;94380.78;6175524;23;20012;-65
2022/09/29 09:18:52;;;;;;;3.95;3.60;;;;;;;11.27;100.00;94379.44;6176121;23;20024;-64
2022/09/29 09:21:35;;;;;;;3.80;3.50;;;;;;;11.27;100.00;94379.44;6175806;23;20046;-65
2022/09/29 09:24:13;;;;;;;4.78;4.22;;;;;;;11.17;100.00;94378.84;6150068;23;20465;-65
2022/09/29 09:26:42;;;;;;;5.40;4.90;;;;;;;11.14;100.00;94381.84;6176917;23;20510;-65
2022/09/29 09:29:19;;;;;;;4.68;4.13;;;;;;;11.23;100.00;94377.31;6177105;23;20080;-64
2022/09/29 09:31:56;;;;;;;4.00;3.50;;;;;;;11.15;100.00;94378.22;6177095;23;20013;-75
2022/09/29 09:34:37;;;;;;;3.25;3.00;;;;;;;11.21;100.00;94374.84;6177941;22;20005;-60
2022/09/29 09:37:13;;;;;;;2.95;2.75;;;;;;;11.30;100.00;94380.88;6177232;23;20321;-74
2022/09/29 09:39:47;;;;;;;2.40;2.30;;;;;;;11.24;100.00;94374.50;6177468;23;20435;-73
2022/09/29 09:42:36;;;;;;;2.90;2.70;;;;;;;11.31;100.00;94378.06;6176315;23;20001;-74
2022/09/29 09:45:09;;;;;;;3.10;2.85;;;;;;;11.32;100.00;94379.72;6178083;23;20004;-74
2022/09/29 09:47:41;;;;;;;2.75;2.50;;;;;;;11.28;100.00;94380.22;6177890;23;20427;-74
2022/09/29 09:50:16;;;;;;;3.70;3.13;;;;;;;11.41;100.00;94369.91;6177531;23;20004;-74
2022/09/29 09:52:58;;;;;;;2.95;2.75;;;;;;;11.34;100.00;94371.59;6178374;23;19997;-67
2022/09/29 09:55:26;;;;;;;2.80;2.60;;;;;;;11.37;100.00;94367.81;6176113;22;20058;-74
2022/09/29 09:58:29;;;;;;;2.53;2.38;;;;;;;11.45;100.00;94367.72;6151477;23;20012;-74
2022/09/29 10:00:57;;;;;;;3.03;2.40;;;;;;;11.50;100.00;94372.47;6178126;23;20007;-73
2022/09/29 10:03:24;;;;;;;2.10;2.00;;;;;;;11.53;100.00;94358.91;6177563;23;20020;-73
2022/09/29 10:05:50;;;;;;;2.25;1.80;;;;;;;11.64;100.00;94368.19;6177803;23;20025;-73
2022/09/29 10:08:28;;;;;;;7.50;5.40;;;;;;;11.56;100.00;94359.38;6176120;23;19997;-73
2022/09/29 10:10:56;;;;;;;4.97;2.97;;;;;;;11.57;100.00;94360.19;6177863;23;19997;-63
2022/09/29 10:13:25;;;;;;;2.63;1.88;;;;;;;11.40;100.00;94363.00;6178236;23;20342;-63
2022/09/29 10:16:00;;;;;;;4.88;1.40;;;;;;;11.36;100.00;94356.44;6177868;22;19997;-61
2022/09/29 10:18:36;;;;;;;1.95;1.00;;;;;;;11.31;100.00;94350.91;6177065;22;20025;-61
2022/09/29 10:21:01;;;;;;;1.00;1.00;;;;;;;11.29;100.00;94355.53;6176799;23;20062;-61
2022/09/29 10:23:34;;;;;;;0.93;0.93;;;;;;;11.22;100.00;94365.97;6177807;23;20009;-61
2022/09/29 10:26:16;;;;;;;1.42;1.33;;;;;;;11.24;100.00;94374.50;6177598;23;20001;-61
2022/09/29 10:28:58;;;;;;;2.33;2.13;;;;;;;11.24;100.00;94368.41;6177862;23;19997;-61
2022/09/29 10:31:26;;;;;;;1.75;1.20;;;;;;;11.29;100.00;94377.44;6178051;23;20061;-64
2022/09/29 10:33:57;;;;;;;1.10;1.10;;;;;;;11.30;100.00;94367.69;6178063;23;20031;-73
2022/09/29 10:36:30;;;;;;;1.40;1.23;;;;;;;11.38;100.00;94370.25;6177935;23;19993;-73
2022/09/29 10:38:55;;;;;;;4.53;1.95;;;;;;;11.43;100.00;94370.56;6177758;23;20001;-73
2022/09/29 10:41:21;;;;;;;1.60;1.50;;;;;;;11.50;100.00;94375.09;6177980;23;20001;-73
2022/09/29 10:43:48;;;;;;;1.48;1.38;;;;;;;11.52;100.00;94368.66;6178212;23;20079;-74
2022/09/29 10:46:31;;;;;;;1.48;1.20;;;;;;;11.60;100.00;94370.38;6177403;23;20012;-73
2022/09/29 10:49:15;;;;;;;2.10;2.00;;;;;;;11.65;100.00;94377.75;6176723;23;20005;-73
2022/09/29 10:51:53;;;;;;;1.83;1.73;;;;;;;11.60;99.39;94365.09;6151378;22;20342;-60
2022/09/29 10:54:24;;;;;;;1.60;1.50;;;;;;;11.56;100.00;94372.56;6177950;23;20009;-68
2022/09/29 10:56:50;;;;;;;1.70;1.60;;;;;;;11.53;100.00;94372.09;6176750;23;20016;-68
2022/09/29 10:59:16;;;;;;;1.70;1.60;;;;;;;11.48;100.00;94375.25;6176948;23;20028;-67
2022/09/29 11:01:57;;;;;;;1.63;1.50;;;;;;;11.58;100.00;94364.47;6177585;23;20347;-68
2022/09/29 11:04:27;;;;;;;3.42;1.65;;;;;;;11.62;99.45;94365.75;6175998;23;20016;-68
2022/09/29 11:06:53;;;;;;;1.45;1.00;;;;;;;11.76;99.37;94372.03;6176302;23;20076;-67
2022/09/29 11:09:18;;;;;;;0.90;0.90;;;;;;;11.78;98.85;94371.84;6176848;23;20032;-56
2022/09/29 11:11:46;;;;;;;1.10;1.10;;;;;;;11.83;97.20;94372.94;6175308;23;20445;-66
2022/09/29 11:14:37;;;;;;;1.90;1.45;;;;;;;11.96;98.53;94374.13;6178093;23;20001;-65
2022/09/29 11:17:20;;;;;;;1.50;1.40;;;;;;;11.93;94.14;94372.66;6177533;23;20465;-65
2022/09/29 11:19:46;;;;;;;1.30;1.30;;;;;;;11.85;95.37;94383.31;6177685;23;20016;-64
2022/09/29 11:22:36;;;;;;;3.33;1.50;;;;;;;11.70;99.15;94381.47;6177754;23;20001;-65
2022/09/29 11:25:10;;;;;;;1.70;1.60;;;;;;;11.65;100.00;94378.56;6177478;23;19997;-66
2022/09/29 11:27:52;;;;;;;3.92;1.23;;;;;;;11.50;99.41;94383.84;6177596;23;20504;-65
2022/09/29 11:30:31;;;;;;;1.10;1.10;;;;;;;11.30;100.00;94378.25;6151455;23;20344;-63
2022/09/29 11:33:04;;;;;;;2.60;1.58;;;;;;;11.40;100.00;94370.91;6177553;23;20017;-67
2022/09/29 11:35:38;;;;;;;1.50;1.40;;;;;;;11.55;100.00;94372.72;6177789;23;20016;-68
2022/09/29 11:38:25;;;;;;;1.67;1.20;;;;;;;11.69;100.00;94374.56;6177411;23;20435;-67
2022/09/29 11:41:08;;;;;;;1.13;1.13;;;;;;;11.81;100.00;94374.94;6175801;23;20001;-69
2022/09/29 11:43:54;;;;;;;1.10;1.10;;;;;;;11.92;97.43;94384.22;6176833;23;20001;-67
2022/09/29 11:46:47;;;;;;;1.45;1.20;;;;;;;11.87;97.62;94378.66;6176480;22;20058;-68